sensor_id;sensor_type;location;lat;lon;timestamp;P1;durP1;ratioP1;P2;durP2;ratioP2
59314;SDS011;46521;50.160;20.802;2023-05-07T00:16:03;12.27;;;7.20;;
59314;SDS011;46521;50.160;20.802;2023-05-07T00:26:06;12.50;;;7.20;;
59314;SDS011;46521;50.160;20.802;2023-05-07T00:36:07;11.73;;;6.78;;
59314;SDS011;46521;50.160;20.802;2023-05-07T00:46:09;11.80;;;6.50;;
59314;SDS011;46521;50.160;20.802;2023-05-07T00:56:12;11.15;;;5.90;;
59314;SDS011;46521;50.160;20.802;2023-05-07T01:06:14;8.90;;;5.15;;
59314;SDS011;46521;50.160;20.802;2023-05-07T01:16:17;8.75;;;5.08;;
59314;SDS011;46521;50.160;20.802;2023-05-07T01:26:22;8.95;;;4.30;;
59314;SDS011;46521;50.160;20.802;2023-05-07T01:36:24;9.03;;;4.20;;
59314;SDS011;46521;50.160;20.802;2023-05-07T01:46:28;8.95;;;4.80;;
59314;SDS011;46521;50.160;20.802;2023-05-07T01:56:31;9.63;;;4.70;;
59314;SDS011;46521;50.160;20.802;2023-05-07T02:06:33;8.50;;;4.30;;
59314;SDS011;46521;50.160;20.802;2023-05-07T02:16:34;9.17;;;4.70;;
59314;SDS011;46521;50.160;20.802;2023-05-07T02:26:36;8.45;;;4.03;;
59314;SDS011;46521;50.160;20.802;2023-05-07T02:36:37;7.97;;;3.80;;
59314;SDS011;46521;50.160;20.802;2023-05-07T02:46:43;8.40;;;3.68;;
59314;SDS011;46521;50.160;20.802;2023-05-07T02:56:45;9.40;;;3.85;;
59314;SDS011;46521;50.160;20.802;2023-05-07T03:06:47;7.97;;;3.63;;
59314;SDS011;46521;50.160;20.802;2023-05-07T03:16:49;9.00;;;4.30;;
59314;SDS011;46521;50.160;20.802;2023-05-07T03:26:50;7.63;;;3.70;;
59314;SDS011;46521;50.160;20.802;2023-05-07T03:36:52;6.95;;;3.20;;
59314;SDS011;46521;50.160;20.802;2023-05-07T03:46:54;6.85;;;3.28;;
59314;SDS011;46521;50.160;20.802;2023-05-07T03:56:56;7.33;;;3.33;;
59314;SDS011;46521;50.160;20.802;2023-05-07T04:06:58;7.58;;;3.05;;
59314;SDS011;46521;50.160;20.802;2023-05-07T04:17:01;8.45;;;3.40;;
59314;SDS011;46521;50.160;20.802;2023-05-07T04:27:03;8.58;;;3.80;;
59314;SDS011;46521;50.160;20.802;2023-05-07T04:37:07;7.80;;;3.93;;
59314;SDS011;46521;50.160;20.802;2023-05-07T04:47:08;8.40;;;3.90;;
59314;SDS011;46521;50.160;20.802;2023-05-07T04:57:10;8.45;;;4.23;;
59314;SDS011;46521;50.160;20.802;2023-05-07T05:07:12;7.53;;;3.60;;
59314;SDS011;46521;50.160;20.802;2023-05-07T05:27:41;7.73;;;3.90;;
59314;SDS011;46521;50.160;20.802;2023-05-07T05:37:43;8.68;;;4.10;;
59314;SDS011;46521;50.160;20.802;2023-05-07T05:47:44;7.65;;;3.35;;
59314;SDS011;46521;50.160;20.802;2023-05-07T05:57:46;9.53;;;3.73;;
59314;SDS011;46521;50.160;20.802;2023-05-07T06:07:47;7.78;;;3.73;;
59314;SDS011;46521;50.160;20.802;2023-05-07T06:17:49;8.05;;;3.40;;
59314;SDS011;46521;50.160;20.802;2023-05-07T06:27:50;7.20;;;3.65;;
59314;SDS011;46521;50.160;20.802;2023-05-07T06:37:52;6.20;;;3.07;;
59314;SDS011;46521;50.160;20.802;2023-05-07T06:47:53;6.37;;;3.50;;
59314;SDS011;46521;50.160;20.802;2023-05-07T06:57:55;5.88;;;3.00;;
59314;SDS011;46521;50.160;20.802;2023-05-07T07:07:58;7.23;;;3.20;;
59314;SDS011;46521;50.160;20.802;2023-05-07T07:18:00;9.23;;;3.27;;
59314;SDS011;46521;50.160;20.802;2023-05-07T07:28:01;7.05;;;3.80;;
59314;SDS011;46521;50.160;20.802;2023-05-07T07:38:03;7.73;;;3.73;;
59314;SDS011;46521;50.160;20.802;2023-05-07T07:48:05;6.45;;;3.08;;
59314;SDS011;46521;50.160;20.802;2023-05-07T07:58:06;5.40;;;3.00;;
59314;SDS011;46521;50.160;20.802;2023-05-07T08:08:08;6.80;;;3.60;;
59314;SDS011;46521;50.160;20.802;2023-05-07T08:18:10;6.50;;;3.28;;
59314;SDS011;46521;50.160;20.802;2023-05-07T08:28:11;8.60;;;4.50;;
59314;SDS011;46521;50.160;20.802;2023-05-07T08:38:13;7.85;;;3.53;;
59314;SDS011;46521;50.160;20.802;2023-05-07T08:48:15;6.98;;;3.45;;
59314;SDS011;46521;50.160;20.802;2023-05-07T08:58:18;7.20;;;3.80;;
59314;SDS011;46521;50.160;20.802;2023-05-07T09:08:23;7.55;;;3.10;;
59314;SDS011;46521;50.160;20.802;2023-05-07T09:18:26;8.40;;;4.10;;
59314;SDS011;46521;50.160;20.802;2023-05-07T09:28:28;8.95;;;4.30;;
59314;SDS011;46521;50.160;20.802;2023-05-07T09:38:29;8.58;;;5.58;;
59314;SDS011;46521;50.160;20.802;2023-05-07T09:48:31;9.70;;;6.35;;
59314;SDS011;46521;50.160;20.802;2023-05-07T09:58:36;10.65;;;6.50;;
59314;SDS011;46521;50.160;20.802;2023-05-07T10:08:39;12.23;;;7.50;;
59314;SDS011;46521;50.160;20.802;2023-05-07T10:18:41;31.23;;;10.00;;
59314;SDS011;46521;50.160;20.802;2023-05-07T10:28:45;14.40;;;7.88;;
59314;SDS011;46521;50.160;20.802;2023-05-07T10:38:49;11.30;;;5.80;;
59314;SDS011;46521;50.160;20.802;2023-05-07T11:19:53;10.27;;;6.40;;
59314;SDS011;46521;50.160;20.802;2023-05-07T11:29:56;9.80;;;6.50;;
59314;SDS011;46521;50.160;20.802;2023-05-07T11:40:04;10.28;;;6.75;;
59314;SDS011;46521;50.160;20.802;2023-05-07T11:50:07;9.83;;;5.73;;
59314;SDS011;46521;50.160;20.802;2023-05-07T12:00:09;9.78;;;6.80;;
59314;SDS011;46521;50.160;20.802;2023-05-07T12:10:11;10.43;;;6.40;;
59314;SDS011;46521;50.160;20.802;2023-05-07T12:20:14;9.87;;;5.03;;
59314;SDS011;46521;50.160;20.802;2023-05-07T12:30:15;10.13;;;6.10;;
59314;SDS011;46521;50.160;20.802;2023-05-07T12:40:18;8.00;;;4.17;;
59314;SDS011;46521;50.160;20.802;2023-05-07T12:50:21;7.08;;;4.05;;
59314;SDS011;46521;50.160;20.802;2023-05-07T13:00:36;8.87;;;5.43;;
59314;SDS011;46521;50.160;20.802;2023-05-07T13:10:38;8.48;;;3.50;;
59314;SDS011;46521;50.160;20.802;2023-05-07T13:20:40;8.50;;;3.60;;
59314;SDS011;46521;50.160;20.802;2023-05-07T13:30:41;7.30;;;3.13;;
59314;SDS011;46521;50.160;20.802;2023-05-07T13:40:43;7.45;;;3.33;;
59314;SDS011;46521;50.160;20.802;2023-05-07T13:50:45;6.70;;;3.10;;
59314;SDS011;46521;50.160;20.802;2023-05-07T14:00:46;7.17;;;3.03;;
59314;SDS011;46521;50.160;20.802;2023-05-07T14:10:48;7.38;;;3.68;;
59314;SDS011;46521;50.160;20.802;2023-05-07T14:20:49;6.60;;;3.45;;
59314;SDS011;46521;50.160;20.802;2023-05-07T14:30:51;8.77;;;4.37;;
59314;SDS011;46521;50.160;20.802;2023-05-07T14:40:52;6.85;;;3.30;;
59314;SDS011;46521;50.160;20.802;2023-05-07T14:50:56;6.60;;;3.23;;
59314;SDS011;46521;50.160;20.802;2023-05-07T15:00:58;7.30;;;3.60;;
59314;SDS011;46521;50.160;20.802;2023-05-07T15:11:00;5.95;;;3.25;;
59314;SDS011;46521;50.160;20.802;2023-05-07T15:21:01;6.45;;;3.30;;
59314;SDS011;46521;50.160;20.802;2023-05-07T15:31:03;7.40;;;3.57;;
59314;SDS011;46521;50.160;20.802;2023-05-07T15:41:06;7.70;;;4.00;;
59314;SDS011;46521;50.160;20.802;2023-05-07T15:51:07;11.40;;;6.35;;
59314;SDS011;46521;50.160;20.802;2023-05-07T16:01:10;8.10;;;4.70;;
59314;SDS011;46521;50.160;20.802;2023-05-07T16:11:11;7.87;;;4.20;;
59314;SDS011;46521;50.160;20.802;2023-05-07T16:21:13;9.57;;;4.73;;
59314;SDS011;46521;50.160;20.802;2023-05-07T16:31:15;9.95;;;5.05;;
59314;SDS011;46521;50.160;20.802;2023-05-07T16:41:16;11.10;;;5.70;;
59314;SDS011;46521;50.160;20.802;2023-05-07T16:51:18;13.20;;;6.80;;
59314;SDS011;46521;50.160;20.802;2023-05-07T17:01:20;8.07;;;4.17;;
59314;SDS011;46521;50.160;20.802;2023-05-07T17:11:21;10.43;;;6.80;;
59314;SDS011;46521;50.160;20.802;2023-05-07T17:21:23;9.78;;;4.93;;
59314;SDS011;46521;50.160;20.802;2023-05-07T17:31:24;8.20;;;4.08;;
59314;SDS011;46521;50.160;20.802;2023-05-07T17:41:26;9.60;;;4.70;;
59314;SDS011;46521;50.160;20.802;2023-05-07T17:51:27;10.25;;;5.10;;
59314;SDS011;46521;50.160;20.802;2023-05-07T18:01:29;8.73;;;4.97;;
59314;SDS011;46521;50.160;20.802;2023-05-07T18:11:33;10.55;;;5.18;;
59314;SDS011;46521;50.160;20.802;2023-05-07T18:21:34;9.80;;;6.00;;
59314;SDS011;46521;50.160;20.802;2023-05-07T18:31:36;9.00;;;5.10;;
59314;SDS011;46521;50.160;20.802;2023-05-07T18:41:37;9.90;;;5.13;;
59314;SDS011;46521;50.160;20.802;2023-05-07T18:51:39;9.33;;;5.47;;
59314;SDS011;46521;50.160;20.802;2023-05-07T19:01:43;8.93;;;5.27;;
59314;SDS011;46521;50.160;20.802;2023-05-07T19:11:46;8.13;;;4.93;;
59314;SDS011;46521;50.160;20.802;2023-05-07T19:21:48;8.68;;;4.90;;
59314;SDS011;46521;50.160;20.802;2023-05-07T19:31:49;8.63;;;4.27;;
59314;SDS011;46521;50.160;20.802;2023-05-07T19:41:51;7.77;;;4.10;;
59314;SDS011;46521;50.160;20.802;2023-05-07T19:51:53;8.70;;;4.50;;
59314;SDS011;46521;50.160;20.802;2023-05-07T20:01:54;7.70;;;3.70;;
59314;SDS011;46521;50.160;20.802;2023-05-07T20:11:55;8.33;;;4.23;;
59314;SDS011;46521;50.160;20.802;2023-05-07T20:21:57;7.67;;;3.93;;
59314;SDS011;46521;50.160;20.802;2023-05-07T20:31:58;8.27;;;4.30;;
59314;SDS011;46521;50.160;20.802;2023-05-07T20:42:03;8.23;;;4.00;;
59314;SDS011;46521;50.160;20.802;2023-05-07T20:52:05;8.08;;;4.68;;
59314;SDS011;46521;50.160;20.802;2023-05-07T21:02:06;8.65;;;4.60;;
59314;SDS011;46521;50.160;20.802;2023-05-07T21:12:08;9.20;;;4.50;;
59314;SDS011;46521;50.160;20.802;2023-05-07T21:22:11;8.40;;;3.75;;
59314;SDS011;46521;50.160;20.802;2023-05-07T21:32:13;7.20;;;4.00;;
59314;SDS011;46521;50.160;20.802;2023-05-07T21:42:15;8.05;;;3.90;;
59314;SDS011;46521;50.160;20.802;2023-05-07T21:52:16;7.10;;;3.50;;
59314;SDS011;46521;50.160;20.802;2023-05-07T22:02:18;8.40;;;3.93;;
59314;SDS011;46521;50.160;20.802;2023-05-07T22:12:19;8.75;;;3.80;;
59314;SDS011;46521;50.160;20.802;2023-05-07T22:22:21;8.90;;;4.10;;
59314;SDS011;46521;50.160;20.802;2023-05-07T22:32:22;7.70;;;4.20;;
59314;SDS011;46521;50.160;20.802;2023-05-07T22:42:24;7.67;;;4.10;;
59314;SDS011;46521;50.160;20.802;2023-05-07T22:52:25;8.80;;;3.90;;
59314;SDS011;46521;50.160;20.802;2023-05-07T23:02:27;8.70;;;4.30;;
59314;SDS011;46521;50.160;20.802;2023-05-07T23:12:28;8.95;;;4.40;;
59314;SDS011;46521;50.160;20.802;2023-05-07T23:22:30;7.65;;;3.85;;
59314;SDS011;46521;50.160;20.802;2023-05-07T23:32:31;7.35;;;3.90;;
59314;SDS011;46521;50.160;20.802;2023-05-07T23:42:33;8.20;;;3.93;;
